createdAt,value
2017-04-26T00:00:02.249Z,996.82
2017-04-26T00:00:42.755Z,996.75
2017-04-26T00:01:23.285Z,996.79
2017-04-26T00:02:03.806Z,996.75
2017-04-26T00:02:44.326Z,996.73
2017-04-26T00:03:24.839Z,996.75
2017-04-26T00:04:05.353Z,996.76
2017-04-26T00:04:45.879Z,996.73
2017-04-26T00:05:26.396Z,996.77
2017-04-26T00:06:06.919Z,996.78
2017-04-26T00:06:47.443Z,996.79
2017-04-26T00:07:27.995Z,996.8
2017-04-26T00:08:08.507Z,996.79
2017-04-26T00:08:49.037Z,996.73
2017-04-26T00:09:29.562Z,996.78
2017-04-26T00:10:10.079Z,996.72
2017-04-26T00:10:50.601Z,996.78
2017-04-26T00:11:31.127Z,996.74
2017-04-26T00:12:11.648Z,996.73
2017-04-26T00:12:52.162Z,996.67
2017-04-26T00:13:32.682Z,996.71
2017-04-26T00:14:13.201Z,996.69
2017-04-26T00:14:53.727Z,996.68
2017-04-26T00:15:34.252Z,996.72
2017-04-26T00:16:14.768Z,996.74
2017-04-26T00:16:55.302Z,996.66
2017-04-26T00:17:35.824Z,996.71
2017-04-26T00:18:16.339Z,996.7
2017-04-26T00:18:56.862Z,996.63
2017-04-26T00:19:37.383Z,996.73
2017-04-26T00:20:17.895Z,996.77
2017-04-26T00:20:58.414Z,996.83
2017-04-26T00:21:38.935Z,996.88
2017-04-26T00:22:19.463Z,996.91
2017-04-26T00:22:59.995Z,996.99
2017-04-26T00:23:40.516Z,996.98
2017-04-26T00:24:21.033Z,997.01
2017-04-26T00:25:01.570Z,996.98
2017-04-26T00:25:42.086Z,996.94
2017-04-26T00:26:22.617Z,996.88
2017-04-26T00:27:03.141Z,996.88
2017-04-26T00:27:43.662Z,996.79
2017-04-26T00:28:24.188Z,996.79
2017-04-26T00:29:04.691Z,996.81
2017-04-26T00:29:45.211Z,996.85
2017-04-26T00:30:25.738Z,996.92
2017-04-26T00:31:06.263Z,996.97
2017-04-26T00:31:46.779Z,996.9
2017-04-26T00:32:27.290Z,996.91
2017-04-26T00:33:07.815Z,996.86
2017-04-26T00:33:48.328Z,996.84
2017-04-26T00:34:28.845Z,996.82
2017-04-26T00:35:09.361Z,996.79
2017-04-26T00:35:49.879Z,996.82
2017-04-26T00:36:30.391Z,996.83
2017-04-26T00:37:10.911Z,996.84
2017-04-26T00:37:51.428Z,996.82
2017-04-26T00:38:31.971Z,996.82
2017-04-26T00:39:12.487Z,996.87
2017-04-26T00:39:53.017Z,996.8
2017-04-26T00:40:33.526Z,996.86
2017-04-26T00:41:14.052Z,996.84
2017-04-26T00:41:54.577Z,996.83
2017-04-26T00:42:35.093Z,996.83
2017-04-26T00:43:15.606Z,996.79
2017-04-26T00:43:56.135Z,996.8
2017-04-26T00:44:36.664Z,996.79
2017-04-26T00:45:17.183Z,996.74
2017-04-26T00:45:57.729Z,996.79
2017-04-26T00:46:38.248Z,996.78
2017-04-26T00:47:18.769Z,996.82
2017-04-26T00:47:59.277Z,996.79
2017-04-26T00:48:39.793Z,996.75
2017-04-26T00:49:20.322Z,996.77
2017-04-26T00:50:00.837Z,996.73
2017-04-26T00:50:41.366Z,996.76
2017-04-26T00:51:21.884Z,996.74
2017-04-26T00:52:02.397Z,996.73
2017-04-26T00:52:42.913Z,996.74
2017-04-26T00:53:23.462Z,996.7
2017-04-26T00:54:03.974Z,996.66
2017-04-26T00:54:44.502Z,996.61
2017-04-26T00:55:25.011Z,996.6
2017-04-26T00:56:05.548Z,996.63
2017-04-26T00:56:46.078Z,996.68
2017-04-26T00:57:26.603Z,996.64
2017-04-26T00:58:07.111Z,996.61
2017-04-26T00:58:47.631Z,996.56
2017-04-26T00:59:28.152Z,996.53
2017-04-26T01:00:08.707Z,996.5
2017-04-26T01:00:49.242Z,996.51
2017-04-26T01:01:29.758Z,996.41
2017-04-26T01:02:10.270Z,996.4
2017-04-26T01:02:50.783Z,996.37
2017-04-26T01:03:31.300Z,996.34
2017-04-26T01:04:11.818Z,996.31
2017-04-26T01:04:52.337Z,996.36
2017-04-26T01:05:32.852Z,996.36
2017-04-26T01:06:13.380Z,996.43
2017-04-26T01:06:53.901Z,996.41
2017-04-26T01:07:34.421Z,996.46
2017-04-26T01:08:14.948Z,996.46
2017-04-26T01:08:55.468Z,996.44
2017-04-26T01:09:35.992Z,996.45
2017-04-26T01:10:16.512Z,996.45
2017-04-26T01:10:57.044Z,996.44
2017-04-26T01:11:37.563Z,996.48
2017-04-26T01:12:18.086Z,996.48
2017-04-26T01:12:58.602Z,996.47
2017-04-26T01:13:39.122Z,996.49
2017-04-26T01:14:19.637Z,996.54
2017-04-26T01:15:00.165Z,996.56
2017-04-26T01:15:40.699Z,996.55
2017-04-26T01:16:21.213Z,996.62
2017-04-26T01:17:01.726Z,996.62
2017-04-26T01:17:42.239Z,996.62
2017-04-26T01:18:22.758Z,996.66
2017-04-26T01:19:03.283Z,996.65
2017-04-26T01:19:43.794Z,996.65
2017-04-26T01:20:24.313Z,996.67
2017-04-26T01:21:04.828Z,996.63
2017-04-26T01:21:45.355Z,996.62
2017-04-26T01:22:25.896Z,996.64
2017-04-26T01:23:06.413Z,996.6
2017-04-26T01:23:46.933Z,996.6
2017-04-26T01:24:27.459Z,996.65
2017-04-26T01:25:07.961Z,996.74
2017-04-26T01:25:48.485Z,996.82
2017-04-26T01:26:28.997Z,996.9
2017-04-26T01:27:09.520Z,996.9
2017-04-26T01:27:50.039Z,996.98
2017-04-26T01:28:30.554Z,996.98
2017-04-26T01:29:11.064Z,997
2017-04-26T01:29:51.578Z,996.94
2017-04-26T01:30:32.090Z,996.92
2017-04-26T01:31:12.614Z,996.89
2017-04-26T01:31:53.128Z,996.86
2017-04-26T01:32:33.638Z,996.88
2017-04-26T01:33:14.170Z,996.91
2017-04-26T01:33:54.697Z,996.89
2017-04-26T01:34:35.216Z,996.87
2017-04-26T01:35:15.735Z,996.88
2017-04-26T01:35:56.252Z,996.92
2017-04-26T01:36:36.772Z,996.91
2017-04-26T01:37:17.288Z,996.9
2017-04-26T01:37:57.809Z,996.88
2017-04-26T01:38:38.333Z,996.86
2017-04-26T01:39:18.851Z,996.92
2017-04-26T01:39:59.367Z,996.85
2017-04-26T01:40:39.889Z,996.82
2017-04-26T01:41:20.410Z,996.8
2017-04-26T01:42:00.933Z,996.84
2017-04-26T01:42:41.453Z,996.88
2017-04-26T01:43:21.967Z,996.84
2017-04-26T01:44:02.483Z,996.89
2017-04-26T01:44:43.050Z,996.9
2017-04-26T01:45:23.556Z,996.9
2017-04-26T01:46:04.070Z,996.9
2017-04-26T01:46:44.608Z,996.93
2017-04-26T01:47:25.119Z,996.9
2017-04-26T01:48:05.637Z,996.93
2017-04-26T01:48:46.157Z,996.91
2017-04-26T01:49:26.684Z,996.91
2017-04-26T01:50:07.204Z,996.92
2017-04-26T01:50:47.715Z,996.96
2017-04-26T01:51:28.231Z,996.96
2017-04-26T01:52:08.758Z,996.99
2017-04-26T01:52:49.275Z,996.93
2017-04-26T01:53:29.799Z,996.98
2017-04-26T01:54:10.322Z,996.95
2017-04-26T01:54:50.845Z,996.97
2017-04-26T01:55:31.368Z,996.97
2017-04-26T01:56:11.888Z,996.98
2017-04-26T01:56:52.414Z,996.93
2017-04-26T01:57:32.938Z,996.93
2017-04-26T01:58:13.455Z,996.94
2017-04-26T01:58:53.970Z,996.93
2017-04-26T01:59:34.490Z,996.96
2017-04-26T02:00:15.015Z,996.94
2017-04-26T02:00:55.525Z,996.95
2017-04-26T02:01:36.054Z,996.98
2017-04-26T02:02:16.574Z,996.96
2017-04-26T02:02:57.097Z,996.97
2017-04-26T02:03:37.610Z,996.96
2017-04-26T02:04:18.121Z,996.98
2017-04-26T02:04:58.642Z,997.02
2017-04-26T02:05:39.146Z,996.99
2017-04-26T02:06:19.642Z,997
2017-04-26T02:07:00.154Z,996.97
2017-04-26T02:07:40.673Z,997.09
2017-04-26T02:08:21.190Z,997.04
2017-04-26T02:09:01.715Z,997.03
2017-04-26T02:09:42.234Z,996.96
2017-04-26T02:10:22.749Z,996.97
2017-04-26T02:11:03.270Z,996.93
2017-04-26T02:11:43.783Z,996.92
2017-04-26T02:12:24.309Z,996.88
2017-04-26T02:13:04.825Z,996.89
2017-04-26T02:13:45.343Z,996.92
2017-04-26T02:14:25.866Z,996.9
2017-04-26T02:15:06.383Z,996.91
2017-04-26T02:15:46.904Z,996.96
2017-04-26T02:16:27.423Z,996.88
2017-04-26T02:17:07.942Z,996.84
2017-04-26T02:17:48.451Z,996.89
2017-04-26T02:18:28.970Z,996.89
2017-04-26T02:19:09.491Z,996.83
2017-04-26T02:19:50.034Z,996.84
2017-04-26T02:20:30.556Z,996.84
2017-04-26T02:21:11.078Z,996.85
2017-04-26T02:21:51.593Z,996.86
2017-04-26T02:22:32.109Z,996.84
2017-04-26T02:23:12.619Z,996.85
2017-04-26T02:23:53.132Z,996.87
2017-04-26T02:24:33.657Z,996.87
2017-04-26T02:25:14.181Z,996.91
2017-04-26T02:25:54.706Z,996.91
2017-04-26T02:26:35.228Z,996.91
2017-04-26T02:27:15.751Z,996.88
2017-04-26T02:27:56.278Z,996.84
2017-04-26T02:28:36.798Z,996.9
2017-04-26T02:29:17.322Z,996.85
2017-04-26T02:29:57.837Z,996.92
2017-04-26T02:30:38.349Z,996.9
2017-04-26T02:31:18.885Z,996.9
2017-04-26T02:31:59.399Z,996.92
2017-04-26T02:32:39.918Z,996.89
2017-04-26T02:33:20.438Z,996.87
2017-04-26T02:34:00.960Z,996.86
2017-04-26T02:34:41.465Z,996.88
2017-04-26T02:35:21.997Z,996.9
2017-04-26T02:36:02.501Z,996.87
2017-04-26T02:36:43.021Z,996.88
2017-04-26T02:37:23.536Z,996.89
2017-04-26T02:38:04.051Z,996.88
2017-04-26T02:38:44.574Z,996.83
2017-04-26T02:39:25.088Z,996.84
2017-04-26T02:40:05.605Z,996.83
2017-04-26T02:40:46.131Z,996.88
2017-04-26T02:41:26.649Z,996.87
2017-04-26T02:42:07.173Z,996.89
2017-04-26T02:42:47.693Z,996.89
2017-04-26T02:43:28.215Z,996.92
2017-04-26T02:44:08.734Z,996.9
2017-04-26T02:44:49.262Z,996.91
2017-04-26T02:45:29.782Z,996.83
2017-04-26T02:46:10.311Z,996.84
2017-04-26T02:46:50.831Z,996.82
2017-04-26T02:47:31.349Z,996.8
2017-04-26T02:48:11.883Z,996.8
2017-04-26T02:48:52.400Z,996.77
2017-04-26T02:49:32.917Z,996.8
2017-04-26T02:50:13.427Z,996.83
2017-04-26T02:50:53.948Z,996.81
2017-04-26T02:51:34.469Z,996.8
2017-04-26T02:52:14.987Z,996.83
2017-04-26T02:52:55.507Z,996.85
2017-04-26T02:53:36.030Z,996.88
2017-04-26T02:54:16.553Z,996.81
2017-04-26T02:54:57.065Z,996.87
2017-04-26T02:55:37.576Z,996.83
2017-04-26T02:56:18.112Z,996.83
2017-04-26T02:56:58.640Z,996.83
2017-04-26T02:57:39.157Z,996.85
2017-04-26T02:58:19.665Z,996.83
2017-04-26T02:59:00.209Z,996.86
2017-04-26T02:59:40.738Z,996.8
2017-04-26T03:00:21.245Z,996.83
2017-04-26T03:01:01.768Z,996.82
2017-04-26T03:01:42.280Z,996.83
2017-04-26T03:02:22.800Z,996.81
2017-04-26T03:03:03.316Z,996.81
2017-04-26T03:03:43.844Z,996.77
2017-04-26T03:04:24.377Z,996.76
2017-04-26T03:05:04.891Z,996.72
2017-04-26T03:05:45.404Z,996.75
2017-04-26T03:06:25.921Z,996.74
2017-04-26T03:07:06.444Z,996.74
2017-04-26T03:07:46.961Z,996.77
2017-04-26T03:08:27.474Z,996.78
2017-04-26T03:09:07.999Z,996.83
2017-04-26T03:09:48.515Z,996.76
2017-04-26T03:10:29.048Z,996.76
2017-04-26T03:11:09.573Z,996.81
2017-04-26T03:11:50.104Z,996.77
2017-04-26T03:12:30.621Z,996.75
2017-04-26T03:13:11.135Z,996.77
2017-04-26T03:13:51.647Z,996.72
2017-04-26T03:14:32.175Z,996.73
2017-04-26T03:15:12.695Z,996.75
2017-04-26T03:15:53.216Z,996.82
2017-04-26T03:16:33.729Z,996.79
2017-04-26T03:17:14.244Z,996.78
2017-04-26T03:17:54.753Z,996.83
2017-04-26T03:18:35.276Z,996.84
2017-04-26T03:19:15.789Z,996.85
2017-04-26T03:19:56.308Z,996.93
2017-04-26T03:20:36.830Z,996.86
2017-04-26T03:21:17.346Z,996.83
2017-04-26T03:21:57.866Z,996.87
2017-04-26T03:22:38.385Z,996.81
2017-04-26T03:23:18.908Z,996.77
2017-04-26T03:23:59.449Z,996.79
2017-04-26T03:24:39.970Z,996.8
2017-04-26T03:25:20.485Z,996.81
2017-04-26T03:26:01.001Z,996.8
2017-04-26T03:26:41.515Z,996.88
2017-04-26T03:27:22.048Z,996.85
2017-04-26T03:28:02.561Z,996.84
2017-04-26T03:28:43.082Z,996.87
2017-04-26T03:29:23.598Z,996.91
2017-04-26T03:30:04.114Z,996.92
2017-04-26T03:30:44.660Z,996.95
2017-04-26T03:31:25.169Z,997.01
2017-04-26T03:32:05.737Z,996.95
2017-04-26T03:32:46.256Z,996.94
2017-04-26T03:33:26.781Z,996.93
2017-04-26T03:34:07.307Z,996.87
2017-04-26T03:34:47.825Z,996.89
2017-04-26T03:35:28.343Z,996.9
2017-04-26T03:36:08.872Z,996.88
2017-04-26T03:36:49.391Z,996.87
2017-04-26T03:37:29.912Z,996.85
2017-04-26T03:38:10.432Z,996.84
2017-04-26T03:38:50.959Z,996.87
2017-04-26T03:39:31.482Z,996.77
2017-04-26T03:40:12.001Z,996.8
2017-04-26T03:40:52.522Z,996.84
2017-04-26T03:41:33.048Z,996.88
2017-04-26T03:42:13.581Z,996.89
2017-04-26T03:42:54.094Z,996.86
2017-04-26T03:43:34.611Z,996.9
2017-04-26T03:44:15.134Z,996.93
2017-04-26T03:44:55.651Z,996.92
2017-04-26T03:45:36.160Z,996.88
2017-04-26T03:46:16.698Z,996.94
2017-04-26T03:46:57.220Z,996.88
2017-04-26T03:47:37.739Z,996.95
2017-04-26T03:48:18.255Z,996.9
2017-04-26T03:48:58.775Z,996.94
2017-04-26T03:49:39.298Z,996.88
2017-04-26T03:50:19.814Z,996.9
2017-04-26T03:51:00.335Z,996.86
2017-04-26T03:51:40.854Z,996.85
2017-04-26T03:52:21.401Z,996.84
2017-04-26T03:53:01.897Z,996.82
2017-04-26T03:53:42.410Z,996.83
2017-04-26T03:54:22.933Z,996.84
2017-04-26T03:55:03.447Z,996.77
2017-04-26T03:55:43.963Z,996.85
2017-04-26T03:56:24.491Z,996.86
2017-04-26T03:57:05.014Z,996.84
2017-04-26T03:57:45.533Z,996.81
2017-04-26T03:58:26.059Z,996.81
2017-04-26T03:59:06.577Z,996.8
2017-04-26T03:59:47.098Z,996.83
2017-04-26T04:00:27.608Z,996.82
2017-04-26T04:01:08.175Z,996.78
2017-04-26T04:01:48.691Z,996.78
2017-04-26T04:02:29.221Z,996.83
2017-04-26T04:03:09.739Z,996.84
2017-04-26T04:03:50.258Z,996.87
2017-04-26T04:04:30.778Z,996.82
2017-04-26T04:05:11.282Z,996.81
2017-04-26T04:05:51.805Z,996.87
2017-04-26T04:06:32.324Z,996.87
2017-04-26T04:07:12.847Z,996.87
2017-04-26T04:07:53.365Z,996.87
2017-04-26T04:08:33.880Z,996.89
2017-04-26T04:09:14.406Z,996.83
2017-04-26T04:09:54.919Z,996.93
2017-04-26T04:10:35.425Z,997.01
2017-04-26T04:11:15.958Z,997
2017-04-26T04:11:56.457Z,996.97
2017-04-26T04:12:36.976Z,996.97
2017-04-26T04:13:17.504Z,997.04
2017-04-26T04:13:58.038Z,996.9
2017-04-26T04:14:38.555Z,996.97
2017-04-26T04:15:19.089Z,997
2017-04-26T04:15:59.602Z,996.93
2017-04-26T04:16:40.128Z,996.92
2017-04-26T04:17:20.650Z,996.94
2017-04-26T04:18:01.178Z,996.93
2017-04-26T04:18:41.708Z,996.92
2017-04-26T04:19:22.241Z,996.96
2017-04-26T04:20:02.760Z,996.95
2017-04-26T04:20:43.270Z,996.99
2017-04-26T04:21:23.805Z,996.93
2017-04-26T04:22:04.330Z,996.98
2017-04-26T04:22:44.848Z,996.94
2017-04-26T04:23:25.371Z,996.98
2017-04-26T04:24:05.893Z,996.94
2017-04-26T04:24:46.410Z,996.96
2017-04-26T04:25:26.927Z,996.98
2017-04-26T04:26:07.445Z,996.96
2017-04-26T04:26:47.951Z,996.95
2017-04-26T04:27:28.473Z,996.95
2017-04-26T04:28:08.992Z,996.98
2017-04-26T04:28:49.513Z,997.01
2017-04-26T04:29:30.032Z,996.96
2017-04-26T04:30:10.557Z,996.99
2017-04-26T04:30:51.075Z,996.98
2017-04-26T04:31:31.591Z,996.93
2017-04-26T04:32:12.109Z,996.92
2017-04-26T04:32:52.638Z,996.89
2017-04-26T04:33:33.155Z,996.87
2017-04-26T04:34:13.665Z,996.82
2017-04-26T04:34:54.182Z,996.86
2017-04-26T04:35:34.687Z,996.86
2017-04-26T04:36:15.218Z,996.86
2017-04-26T04:36:55.734Z,996.88
2017-04-26T04:37:36.272Z,996.84
2017-04-26T04:38:16.765Z,996.91
2017-04-26T04:38:57.283Z,996.93
2017-04-26T04:39:37.884Z,996.92
2017-04-26T04:40:18.399Z,996.98
2017-04-26T04:40:58.907Z,996.96
2017-04-26T04:41:39.427Z,996.97
2017-04-26T04:42:19.943Z,997.04
2017-04-26T04:43:00.456Z,997.04
2017-04-26T04:43:40.983Z,997.09
2017-04-26T04:44:21.509Z,997.1
2017-04-26T04:45:02.011Z,997.05
2017-04-26T04:45:42.545Z,997.03
2017-04-26T04:46:23.062Z,996.99
2017-04-26T04:47:03.575Z,996.95
2017-04-26T04:47:44.079Z,996.95
2017-04-26T04:48:24.588Z,996.95
2017-04-26T04:49:05.124Z,996.94
2017-04-26T04:49:45.633Z,996.98
2017-04-26T04:50:26.149Z,996.97
2017-04-26T04:51:06.665Z,996.96
2017-04-26T04:51:47.177Z,996.93
2017-04-26T04:52:27.698Z,996.94
2017-04-26T04:53:08.210Z,996.94
2017-04-26T04:53:48.749Z,996.93
2017-04-26T04:54:29.263Z,996.89
2017-04-26T04:55:09.781Z,996.89
2017-04-26T04:55:50.296Z,996.97
2017-04-26T04:56:30.831Z,996.98
2017-04-26T04:57:11.349Z,996.95
2017-04-26T04:57:51.863Z,997
2017-04-26T04:58:32.401Z,996.95
2017-04-26T04:59:12.940Z,997
2017-04-26T04:59:53.460Z,997.01
2017-04-26T05:00:33.983Z,997.02
2017-04-26T05:01:14.505Z,997.1
2017-04-26T05:01:55.062Z,997.08
2017-04-26T05:02:35.524Z,997.15
2017-04-26T05:03:16.040Z,997.11
2017-04-26T05:03:56.553Z,997.17
2017-04-26T05:04:37.073Z,997.22
2017-04-26T05:05:17.595Z,997.25
2017-04-26T05:05:58.108Z,997.26
2017-04-26T05:06:38.629Z,997.29
2017-04-26T05:07:19.158Z,997.29
2017-04-26T05:07:59.676Z,997.3
2017-04-26T05:08:40.209Z,997.33
2017-04-26T05:09:20.733Z,997.31
2017-04-26T05:10:01.255Z,997.27
2017-04-26T05:10:41.791Z,997.34
2017-04-26T05:11:22.388Z,997.34
2017-04-26T05:12:02.905Z,997.31
2017-04-26T05:12:43.412Z,997.34
2017-04-26T05:13:23.925Z,997.33
2017-04-26T05:14:04.458Z,997.33
2017-04-26T05:14:45.042Z,997.31
2017-04-26T05:15:25.558Z,997.33
2017-04-26T05:16:06.071Z,997.32
2017-04-26T05:16:46.586Z,997.24
2017-04-26T05:17:27.107Z,997.26
2017-04-26T05:18:07.629Z,997.26
2017-04-26T05:18:48.143Z,997.22
2017-04-26T05:19:28.659Z,997.23
2017-04-26T05:20:09.175Z,997.23
2017-04-26T05:20:49.684Z,997.2
2017-04-26T05:21:30.215Z,997.25
2017-04-26T05:22:10.730Z,997.34
2017-04-26T05:22:51.256Z,997.3
2017-04-26T05:23:31.786Z,997.34
2017-04-26T05:24:12.294Z,997.34
2017-04-26T05:24:52.815Z,997.37
2017-04-26T05:25:33.349Z,997.4
2017-04-26T05:26:13.859Z,997.36
2017-04-26T05:26:54.379Z,997.39
2017-04-26T05:27:34.897Z,997.4
2017-04-26T05:28:15.452Z,997.41
2017-04-26T05:28:55.947Z,997.4
2017-04-26T05:29:36.459Z,997.45
2017-04-26T05:30:16.976Z,997.36
2017-04-26T05:30:57.485Z,997.46
2017-04-26T05:31:38.006Z,997.43
2017-04-26T05:32:18.528Z,997.41
2017-04-26T05:32:59.055Z,997.43
2017-04-26T05:33:39.568Z,997.5
2017-04-26T05:34:20.094Z,997.5
2017-04-26T05:35:00.606Z,997.49
2017-04-26T05:35:41.769Z,997.47
2017-04-26T05:36:22.267Z,997.54
2017-04-26T05:37:02.758Z,997.54
2017-04-26T05:37:43.254Z,997.52
2017-04-26T05:38:23.768Z,997.56
2017-04-26T05:39:04.297Z,997.56
2017-04-26T05:39:44.831Z,997.58
2017-04-26T05:40:25.355Z,997.57
2017-04-26T05:41:05.880Z,997.59
2017-04-26T05:41:46.408Z,997.61
2017-04-26T05:42:26.930Z,997.57
2017-04-26T05:43:07.447Z,997.56
2017-04-26T05:43:47.957Z,997.57
2017-04-26T05:44:28.492Z,997.59
2017-04-26T05:45:09.020Z,997.54
2017-04-26T05:45:49.565Z,997.56
2017-04-26T05:46:30.076Z,997.58
2017-04-26T05:47:10.604Z,997.59
2017-04-26T05:47:51.131Z,997.54
2017-04-26T05:48:31.631Z,997.58
2017-04-26T05:49:12.166Z,997.58
2017-04-26T05:49:52.685Z,997.58
2017-04-26T05:50:33.201Z,997.64
2017-04-26T05:51:13.739Z,997.67
2017-04-26T05:51:54.254Z,997.64
2017-04-26T05:52:34.784Z,997.6
2017-04-26T05:53:15.302Z,997.66
2017-04-26T05:53:55.819Z,997.63
2017-04-26T05:54:36.336Z,997.63
2017-04-26T05:55:16.853Z,997.62
2017-04-26T05:55:57.367Z,997.66
2017-04-26T05:56:37.894Z,997.66
2017-04-26T05:57:18.410Z,997.64
2017-04-26T05:57:58.910Z,997.64
2017-04-26T05:58:39.434Z,997.65
2017-04-26T05:59:19.952Z,997.65
2017-04-26T06:00:00.480Z,997.64
2017-04-26T06:00:40.993Z,997.65
2017-04-26T06:01:21.503Z,997.64
2017-04-26T06:02:02.028Z,997.65
2017-04-26T06:02:42.890Z,997.68
2017-04-26T06:03:23.402Z,997.66
2017-04-26T06:04:04.003Z,997.67
2017-04-26T06:04:44.530Z,997.72
2017-04-26T06:05:25.106Z,997.73
2017-04-26T06:06:05.596Z,997.73
2017-04-26T06:06:46.120Z,997.69
2017-04-26T06:07:26.642Z,997.79
2017-04-26T06:08:07.165Z,997.75
2017-04-26T06:08:47.687Z,997.81
2017-04-26T06:09:28.206Z,997.75
2017-04-26T06:10:08.731Z,997.78
2017-04-26T06:10:49.247Z,997.82
2017-04-26T06:11:29.771Z,997.77
2017-04-26T06:12:10.301Z,997.78
2017-04-26T06:12:50.855Z,997.79
2017-04-26T06:13:31.350Z,997.83
2017-04-26T06:14:11.863Z,997.79
2017-04-26T06:14:52.380Z,997.81
2017-04-26T06:15:32.897Z,997.83
2017-04-26T06:16:13.428Z,997.8
2017-04-26T06:16:53.944Z,997.82
2017-04-26T06:17:34.473Z,997.83
2017-04-26T06:18:14.989Z,997.84
2017-04-26T06:18:55.505Z,997.84
2017-04-26T06:19:36.033Z,997.82
2017-04-26T06:20:16.547Z,997.81
2017-04-26T06:20:57.056Z,997.8
2017-04-26T06:21:37.594Z,997.76
2017-04-26T06:22:18.106Z,997.82
2017-04-26T06:22:58.668Z,997.82
2017-04-26T06:23:39.766Z,997.79
2017-04-26T06:24:20.384Z,997.77
2017-04-26T06:25:00.925Z,997.81
2017-04-26T06:25:41.442Z,997.78
2017-04-26T06:26:21.967Z,997.82
2017-04-26T06:27:02.525Z,997.76
2017-04-26T06:27:43.067Z,997.83
2017-04-26T06:28:23.577Z,997.79
2017-04-26T06:29:04.096Z,997.83
2017-04-26T06:29:44.622Z,997.81
2017-04-26T06:30:25.131Z,997.83
2017-04-26T06:31:05.672Z,997.78
2017-04-26T06:31:46.188Z,997.74
2017-04-26T06:32:26.715Z,997.76
2017-04-26T06:33:07.243Z,997.77
2017-04-26T06:33:47.767Z,997.8
2017-04-26T06:34:28.375Z,997.77
2017-04-26T06:35:08.899Z,997.8
2017-04-26T06:35:49.422Z,997.79
2017-04-26T06:36:30.011Z,997.78
2017-04-26T06:37:10.415Z,997.8
2017-04-26T06:37:50.944Z,997.82
2017-04-26T06:38:31.472Z,997.79
2017-04-26T06:39:11.987Z,997.76
2017-04-26T06:39:52.524Z,997.81
2017-04-26T06:40:33.074Z,997.77
2017-04-26T06:41:13.560Z,997.74
2017-04-26T06:41:54.076Z,997.78
2017-04-26T06:42:34.611Z,997.77
2017-04-26T06:43:15.128Z,997.77
2017-04-26T06:43:55.653Z,997.78
2017-04-26T06:44:36.171Z,997.79
2017-04-26T06:45:16.684Z,997.82
2017-04-26T06:45:57.199Z,997.8
2017-04-26T06:46:37.715Z,997.84
2017-04-26T06:47:18.227Z,997.76
2017-04-26T06:47:58.746Z,997.74
2017-04-26T06:48:39.270Z,997.78
2017-04-26T06:49:19.797Z,997.77
2017-04-26T06:50:00.321Z,997.81
2017-04-26T06:50:40.843Z,997.82
2017-04-26T06:51:21.372Z,997.84
2017-04-26T06:52:01.906Z,997.9
2017-04-26T06:52:42.413Z,997.88
2017-04-26T06:53:22.924Z,997.87
2017-04-26T06:54:03.451Z,997.88
2017-04-26T06:54:43.974Z,997.88
2017-04-26T06:55:24.472Z,997.92
2017-04-26T06:56:05.038Z,997.91
2017-04-26T06:56:45.533Z,997.91
2017-04-26T06:57:26.060Z,997.89
2017-04-26T06:58:06.591Z,997.86
2017-04-26T06:58:47.114Z,997.81
2017-04-26T06:59:27.659Z,997.81
2017-04-26T07:00:08.171Z,997.85
2017-04-26T07:00:48.771Z,997.82
2017-04-26T07:01:29.283Z,997.8
2017-04-26T07:02:09.799Z,997.77
2017-04-26T07:02:50.318Z,997.77
2017-04-26T07:03:30.839Z,997.72
2017-04-26T07:04:11.359Z,997.72
2017-04-26T07:04:51.866Z,997.71
2017-04-26T07:05:32.387Z,997.74
2017-04-26T07:06:12.922Z,997.76
2017-04-26T07:06:53.424Z,997.74
2017-04-26T07:07:33.939Z,997.77
2017-04-26T07:08:14.461Z,997.78
2017-04-26T07:08:54.996Z,997.77
2017-04-26T07:09:35.530Z,997.78
2017-04-26T07:10:16.064Z,997.82
2017-04-26T07:10:56.581Z,997.81
2017-04-26T07:11:37.095Z,997.84
2017-04-26T07:12:17.624Z,997.84
2017-04-26T07:12:58.137Z,997.88
2017-04-26T07:13:38.649Z,997.89
2017-04-26T07:14:19.172Z,997.93
2017-04-26T07:14:59.688Z,997.91
2017-04-26T07:15:40.211Z,997.91
2017-04-26T07:16:20.729Z,997.89
2017-04-26T07:17:01.235Z,997.9
2017-04-26T07:17:41.752Z,997.86
2017-04-26T07:18:22.271Z,997.89
2017-04-26T07:19:02.792Z,997.84
2017-04-26T07:19:43.320Z,997.87
2017-04-26T07:20:23.859Z,997.85
2017-04-26T07:21:04.373Z,997.81
2017-04-26T07:21:44.896Z,997.82
2017-04-26T07:22:25.421Z,997.83
2017-04-26T07:23:05.940Z,997.86
2017-04-26T07:23:46.463Z,997.84
2017-04-26T07:24:27.024Z,997.88
2017-04-26T07:25:07.539Z,997.84
2017-04-26T07:25:48.053Z,997.84
2017-04-26T07:26:28.567Z,997.94
2017-04-26T07:27:09.096Z,997.95
2017-04-26T07:27:49.612Z,997.93
2017-04-26T07:28:30.145Z,997.93
2017-04-26T07:29:10.717Z,997.93
2017-04-26T07:29:51.241Z,997.88
2017-04-26T07:30:31.750Z,997.92
2017-04-26T07:31:12.268Z,997.93
2017-04-26T07:31:52.799Z,997.95
2017-04-26T07:32:33.310Z,997.94
2017-04-26T07:33:13.839Z,997.93
2017-04-26T07:33:54.380Z,997.92
2017-04-26T07:34:34.927Z,997.94
2017-04-26T07:35:15.458Z,997.95
2017-04-26T07:35:56.007Z,997.93
2017-04-26T07:36:36.515Z,997.96
2017-04-26T07:37:17.047Z,997.96
2017-04-26T07:37:57.558Z,997.95
2017-04-26T07:38:38.076Z,997.94
2017-04-26T07:39:18.597Z,997.97
2017-04-26T07:39:59.126Z,997.97
2017-04-26T07:40:39.635Z,997.98
2017-04-26T07:41:20.158Z,997.92
2017-04-26T07:42:00.729Z,997.94
2017-04-26T07:42:41.274Z,997.97
2017-04-26T07:43:21.799Z,997.95
2017-04-26T07:44:02.319Z,997.95
2017-04-26T07:44:42.831Z,997.93
2017-04-26T07:45:23.356Z,997.92
2017-04-26T07:46:03.871Z,997.92
2017-04-26T07:46:44.390Z,997.89
2017-04-26T07:47:24.909Z,997.91
2017-04-26T07:48:05.440Z,997.97
2017-04-26T07:48:46.135Z,997.9
2017-04-26T07:49:26.667Z,997.91
2017-04-26T07:50:07.247Z,997.89
2017-04-26T07:50:47.765Z,997.9
2017-04-26T07:51:28.286Z,997.91
2017-04-26T07:52:08.814Z,997.91
2017-04-26T07:52:49.375Z,997.87
2017-04-26T07:53:29.898Z,997.89
2017-04-26T07:54:10.442Z,997.91
2017-04-26T07:54:50.955Z,997.89
2017-04-26T07:55:31.470Z,997.9
2017-04-26T07:56:11.995Z,997.9
2017-04-26T07:56:52.527Z,997.87
2017-04-26T07:57:33.050Z,997.9
2017-04-26T07:58:13.571Z,997.9
2017-04-26T07:58:54.088Z,997.87
2017-04-26T07:59:34.609Z,997.89
2017-04-26T08:00:15.145Z,997.89
2017-04-26T08:00:55.667Z,997.91
2017-04-26T08:01:36.197Z,997.92
2017-04-26T08:02:16.710Z,997.9
2017-04-26T08:02:57.264Z,997.91
2017-04-26T08:03:37.792Z,997.96
2017-04-26T08:04:18.365Z,997.93
2017-04-26T08:04:58.924Z,997.88
2017-04-26T08:05:39.443Z,997.83
2017-04-26T08:06:19.977Z,997.88
2017-04-26T08:07:00.495Z,997.87
2017-04-26T08:07:41.008Z,997.93
2017-04-26T08:08:21.525Z,997.92
2017-04-26T08:09:02.052Z,998
2017-04-26T08:09:42.563Z,998
2017-04-26T08:10:23.090Z,998
2017-04-26T08:11:03.607Z,998.03
2017-04-26T08:11:44.127Z,998.04
2017-04-26T08:12:24.648Z,998.02
2017-04-26T08:13:05.169Z,998.04
2017-04-26T08:13:45.693Z,998.03
2017-04-26T08:14:26.228Z,998
2017-04-26T08:15:06.756Z,997.98
2017-04-26T08:15:47.280Z,998.01
2017-04-26T08:16:27.800Z,997.96
2017-04-26T08:17:08.317Z,997.99
2017-04-26T08:17:48.825Z,997.96
2017-04-26T08:18:29.359Z,997.95
2017-04-26T08:19:09.864Z,997.97
2017-04-26T08:19:50.399Z,997.93
2017-04-26T08:20:30.906Z,997.99
2017-04-26T08:21:11.438Z,998.03
2017-04-26T08:21:52.013Z,997.97
2017-04-26T08:22:32.510Z,998
2017-04-26T08:23:13.027Z,998.05
2017-04-26T08:23:53.550Z,998.05
2017-04-26T08:24:34.062Z,998.05
2017-04-26T08:25:14.593Z,998.06
2017-04-26T08:25:55.107Z,998.09
2017-04-26T08:26:35.655Z,998.07
2017-04-26T08:27:16.162Z,998.02